CheckWX is a tool to help pilots better visualize weather data.  It is not intended as a substitute for an official pre-flight weather briefing.

01:00:56 UTC

KSRB METAR
Upper Cumberland Regional Airport
Sparta, Tennessee, USA
Current

6 mins ago

KSRB 210055Z AUTO 00000KT 10SM FEW012 OVC060 07/06 A2989 RMK A01
Observed
Apr-21 @ 00:55 UTC
Visibility
10 SM
Flight Rules
VFR
Cloud Levels
  • Few at 1,200' AGL
  • Overcast at 6,000' AGL
Temperature
C / 45°F
Dewpoint
C / 43°F
Humidity
93%
Altimeter
29.89" Hg
Pressure
1012.22 hPa
Previous

26 mins ago

KSRB 210035Z AUTO 00000KT 10SM FEW011 OVC055 07/06 A2988 RMK A01
Observed
Apr-21 @ 00:35 UTC
Visibility
10 SM
Flight Rules
VFR
Cloud Levels
  • Few at 1,100' AGL
  • Overcast at 5,500' AGL
Temperature
C / 45°F
Dewpoint
C / 43°F
Humidity
93%
Altimeter
29.88" Hg
Pressure
1011.82 hPa
Previous

46 mins ago

KSRB 210015Z AUTO 00000KT 10SM FEW013 FEW018 OVC050 07/06 A2987 RMK A01
Observed
Apr-21 @ 00:15 UTC
Visibility
10 SM
Flight Rules
VFR
Cloud Levels
  • Few at 1,300' AGL
  • Few at 1,800' AGL
  • Overcast at 5,000' AGL
Temperature
C / 45°F
Dewpoint
C / 43°F
Humidity
93%
Altimeter
29.87" Hg
Pressure
1011.52 hPa